createdAt,value
2022-11-03T00:01:39.652Z,3.08
2022-11-03T00:04:10.906Z,2.70
2022-11-03T00:06:39.327Z,3.15
2022-11-03T00:09:09.028Z,3.03
2022-11-03T00:11:38.372Z,4.05
2022-11-03T00:14:06.798Z,3.23
2022-11-03T00:16:34.965Z,3.67
2022-11-03T00:19:04.542Z,4.00
2022-11-03T00:21:32.899Z,3.60
2022-11-03T00:24:02.449Z,3.73
2022-11-03T00:26:31.535Z,3.63
2022-11-03T00:29:01.466Z,3.53
2022-11-03T00:31:30.785Z,4.35
2022-11-03T00:34:00.012Z,4.37
2022-11-03T00:36:31.291Z,4.10
2022-11-03T00:38:59.297Z,3.67
2022-11-03T00:41:28.770Z,3.47
2022-11-03T00:43:57.185Z,3.83
2022-11-03T00:46:26.851Z,4.30
2022-11-03T00:48:54.843Z,4.78
2022-11-03T00:51:24.842Z,3.33
2022-11-03T00:53:55.099Z,4.05
2022-11-03T00:56:24.761Z,3.60
2022-11-03T00:58:53.992Z,3.42
2022-11-03T01:01:23.280Z,3.83
2022-11-03T01:04:10.467Z,3.47
2022-11-03T01:06:53.518Z,3.78
2022-11-03T01:09:24.788Z,4.00
2022-11-03T01:11:59.390Z,4.72
2022-11-03T01:14:28.808Z,4.15
2022-11-03T01:16:56.841Z,4.97
2022-11-03T01:19:25.324Z,4.20
2022-11-03T01:21:55.779Z,4.30
2022-11-03T01:24:24.969Z,4.00
2022-11-03T01:26:52.929Z,4.63
2022-11-03T01:29:21.070Z,5.97
2022-11-03T01:31:49.040Z,4.60
2022-11-03T01:34:18.516Z,4.33
2022-11-03T01:36:46.712Z,4.67
2022-11-03T01:39:16.304Z,4.07
2022-11-03T01:41:47.761Z,4.10
2022-11-03T01:44:36.518Z,5.10
2022-11-03T01:47:13.522Z,5.40
2022-11-03T01:49:46.746Z,5.43
2022-11-03T01:52:20.077Z,5.03
2022-11-03T01:54:52.598Z,4.50
2022-11-03T01:57:34.968Z,4.30
2022-11-03T02:00:04.411Z,3.93
2022-11-03T02:02:41.960Z,3.80
2022-11-03T02:05:11.492Z,4.67
2022-11-03T02:07:44.274Z,3.43
2022-11-03T02:10:12.346Z,4.50
2022-11-03T02:12:42.016Z,4.32
2022-11-03T02:15:13.045Z,3.33
2022-11-03T02:17:42.310Z,3.93
2022-11-03T02:20:14.535Z,3.53
2022-11-03T02:23:06.320Z,4.03
2022-11-03T02:25:54.230Z,4.63
2022-11-03T02:28:24.547Z,4.77
2022-11-03T02:31:02.312Z,5.00
2022-11-03T02:33:37.613Z,4.63
2022-11-03T02:36:12.303Z,4.38
2022-11-03T02:38:46.560Z,4.97
2022-11-03T02:41:17.272Z,4.53
2022-11-03T02:43:47.397Z,5.00
2022-11-03T02:46:17.584Z,4.90
2022-11-03T02:48:45.359Z,4.85
2022-11-03T02:51:13.121Z,5.40
2022-11-03T02:53:47.523Z,5.07
2022-11-03T02:56:20.838Z,4.17
2022-11-03T02:58:58.588Z,4.40
2022-11-03T03:01:32.701Z,4.40
2022-11-03T03:04:03.992Z,4.20
2022-11-03T03:06:36.758Z,4.93
2022-11-03T03:09:08.585Z,5.03
2022-11-03T03:11:42.023Z,4.43
2022-11-03T03:14:13.244Z,4.80
2022-11-03T03:16:51.378Z,3.87
2022-11-03T03:19:24.416Z,3.88
2022-11-03T03:21:55.411Z,5.13
2022-11-03T03:24:32.177Z,4.20
2022-11-03T03:27:03.598Z,4.60
2022-11-03T03:29:37.777Z,3.70
2022-11-03T03:32:10.400Z,4.00
2022-11-03T03:34:41.224Z,3.27
2022-11-03T03:37:12.908Z,4.20
2022-11-03T03:39:43.880Z,3.70
2022-11-03T03:42:16.092Z,3.40
2022-11-03T03:44:46.209Z,2.97
2022-11-03T03:47:20.444Z,3.60
2022-11-03T03:49:48.288Z,3.23
2022-11-03T03:52:16.882Z,2.53
2022-11-03T03:54:44.647Z,3.42
2022-11-03T03:57:16.620Z,2.73
2022-11-03T03:59:44.502Z,3.43
2022-11-03T04:02:12.994Z,3.23
2022-11-03T04:04:40.838Z,3.33
2022-11-03T04:07:27.004Z,3.23
2022-11-03T04:09:54.753Z,3.03
2022-11-03T04:12:41.397Z,2.90
2022-11-03T04:15:30.483Z,3.03
2022-11-03T04:18:16.153Z,3.37
2022-11-03T04:21:01.506Z,3.27
2022-11-03T04:23:29.237Z,3.73
2022-11-03T04:25:58.076Z,3.40
2022-11-03T04:28:27.892Z,3.27
2022-11-03T04:30:58.963Z,3.70
2022-11-03T04:33:27.938Z,3.08
2022-11-03T04:35:58.842Z,2.77
2022-11-03T04:38:28.215Z,2.90
2022-11-03T04:40:57.772Z,2.77
2022-11-03T04:43:33.677Z,3.20
2022-11-03T04:46:01.755Z,2.70
2022-11-03T04:48:30.804Z,2.70
2022-11-03T04:51:01.413Z,2.60
2022-11-03T04:53:32.153Z,2.83
2022-11-03T04:56:06.137Z,3.13
2022-11-03T04:58:37.520Z,2.80
2022-11-03T05:01:10.099Z,2.50
2022-11-03T05:03:40.424Z,2.88
2022-11-03T05:06:12.950Z,2.83
2022-11-03T05:08:40.789Z,3.10
2022-11-03T05:11:18.247Z,2.90
2022-11-03T05:13:47.446Z,2.60
2022-11-03T05:16:15.688Z,2.87
2022-11-03T05:18:45.634Z,2.78
2022-11-03T05:21:16.019Z,3.00
2022-11-03T05:23:48.166Z,3.23
2022-11-03T05:26:19.418Z,2.90
2022-11-03T05:28:51.973Z,3.40
2022-11-03T05:31:24.221Z,3.40
2022-11-03T05:33:54.281Z,3.03
2022-11-03T05:36:25.342Z,2.80
2022-11-03T05:38:57.111Z,2.80
2022-11-03T05:41:27.193Z,3.00
2022-11-03T05:43:59.310Z,2.83
2022-11-03T05:46:31.076Z,3.37
2022-11-03T05:49:03.510Z,3.00
2022-11-03T05:51:35.816Z,2.80
2022-11-03T05:54:06.052Z,3.00
2022-11-03T05:56:34.310Z,3.07
2022-11-03T05:59:05.941Z,3.20
2022-11-03T06:01:36.174Z,2.97
2022-11-03T06:04:16.394Z,3.03
2022-11-03T06:06:44.184Z,2.83
2022-11-03T06:09:16.890Z,4.10
2022-11-03T06:11:45.279Z,4.70
2022-11-03T06:14:24.096Z,4.30
2022-11-03T06:16:54.637Z,3.30
2022-11-03T06:19:27.022Z,4.07
2022-11-03T06:21:57.239Z,3.67
2022-11-03T06:24:29.981Z,3.87
2022-11-03T06:26:58.366Z,3.20
2022-11-03T06:29:27.733Z,3.23
2022-11-03T06:31:57.207Z,2.73
2022-11-03T06:34:40.256Z,3.42
2022-11-03T06:37:19.524Z,3.00
2022-11-03T06:39:48.007Z,3.92
2022-11-03T06:42:17.281Z,2.97
2022-11-03T06:44:48.884Z,3.37
2022-11-03T06:47:23.094Z,3.63
2022-11-03T06:49:52.827Z,3.20
2022-11-03T06:52:29.698Z,3.97
2022-11-03T06:55:13.699Z,3.70
2022-11-03T06:57:47.130Z,3.20
2022-11-03T07:00:40.175Z,4.00
2022-11-03T07:03:15.063Z,3.17
2022-11-03T07:05:45.105Z,3.57
2022-11-03T07:08:20.849Z,3.10
2022-11-03T07:10:48.898Z,3.13
2022-11-03T07:13:19.706Z,3.30
2022-11-03T07:15:48.895Z,3.90
2022-11-03T07:18:22.494Z,3.00
2022-11-03T07:20:50.871Z,3.60
2022-11-03T07:23:25.714Z,3.97
2022-11-03T07:25:55.457Z,3.63
2022-11-03T07:28:27.661Z,3.57
2022-11-03T07:30:56.729Z,4.13
2022-11-03T07:33:27.441Z,4.43
2022-11-03T07:38:48.750Z,4.10
2022-11-03T07:41:20.334Z,3.00
2022-11-03T07:43:54.447Z,4.03
2022-11-03T07:46:24.945Z,4.17
2022-11-03T07:48:55.225Z,5.70
2022-11-03T07:51:25.784Z,4.50
2022-11-03T07:53:54.797Z,5.13
2022-11-03T07:56:24.200Z,4.70
2022-11-03T07:58:54.808Z,5.10
2022-11-03T08:01:27.578Z,4.67
2022-11-03T08:04:00.163Z,4.53
2022-11-03T08:06:28.170Z,4.77
2022-11-03T08:08:55.929Z,5.40
2022-11-03T08:11:27.840Z,4.50
2022-11-03T08:13:57.897Z,3.67
2022-11-03T08:16:27.036Z,3.97
2022-11-03T08:18:54.937Z,4.10
2022-11-03T08:21:22.656Z,4.13
2022-11-03T08:23:50.577Z,7.18
2022-11-03T08:26:18.281Z,5.50
2022-11-03T08:28:46.028Z,4.37
2022-11-03T08:31:13.896Z,4.43
2022-11-03T08:33:42.968Z,4.07
2022-11-03T08:36:11.126Z,4.30
2022-11-03T08:38:39.339Z,4.75
2022-11-03T08:41:07.219Z,4.67
2022-11-03T08:43:34.954Z,6.47
2022-11-03T08:46:08.233Z,5.55
2022-11-03T08:48:40.833Z,4.93
2022-11-03T08:51:13.198Z,5.83
2022-11-03T08:53:42.527Z,4.50
2022-11-03T08:56:12.894Z,5.20
2022-11-03T08:58:47.372Z,5.30
2022-11-03T09:01:15.776Z,5.00
2022-11-03T09:03:43.743Z,4.80
2022-11-03T09:06:13.237Z,4.88
2022-11-03T09:11:28.731Z,4.82
2022-11-03T09:13:57.814Z,4.60
2022-11-03T09:16:25.630Z,4.70
2022-11-03T09:18:53.370Z,4.90
2022-11-03T09:21:22.607Z,5.13
2022-11-03T09:23:50.443Z,4.97
2022-11-03T09:26:18.234Z,4.78
2022-11-03T09:28:45.979Z,4.10
2022-11-03T09:31:13.812Z,4.15
2022-11-03T09:33:41.569Z,4.18
2022-11-03T09:36:09.749Z,4.00
2022-11-03T09:38:41.288Z,3.75
2022-11-03T09:41:18.778Z,4.20
2022-11-03T09:43:58.080Z,4.40
2022-11-03T09:46:27.670Z,4.35
2022-11-03T09:48:56.326Z,7.72
2022-11-03T09:51:27.233Z,3.57
2022-11-03T09:53:57.601Z,3.40
2022-11-03T09:56:26.969Z,2.93
2022-11-03T09:58:54.996Z,3.40
2022-11-03T10:01:23.379Z,2.78
2022-11-03T10:03:51.271Z,3.20
2022-11-03T10:06:21.080Z,2.33
2022-11-03T10:08:49.776Z,2.63
2022-11-03T10:11:19.187Z,3.57
2022-11-03T10:13:52.883Z,3.92
2022-11-03T10:16:26.888Z,3.30
2022-11-03T10:18:55.131Z,3.35
2022-11-03T10:21:28.242Z,3.47
2022-11-03T10:23:56.090Z,3.40
2022-11-03T10:26:25.143Z,3.35
2022-11-03T10:29:01.640Z,3.10
2022-11-03T10:31:36.500Z,3.25
2022-11-03T10:34:05.306Z,3.50
2022-11-03T10:36:34.923Z,3.83
2022-11-03T10:39:25.041Z,3.13
2022-11-03T10:41:59.543Z,3.17
2022-11-03T10:44:28.736Z,3.35
2022-11-03T10:46:59.333Z,4.10
2022-11-03T10:49:28.381Z,3.57
2022-11-03T10:52:03.846Z,2.78
2022-11-03T10:54:37.907Z,2.90
2022-11-03T10:57:07.361Z,3.50
2022-11-03T10:59:38.170Z,3.85
2022-11-03T11:02:16.350Z,4.28
2022-11-03T11:04:44.274Z,2.67
2022-11-03T11:07:22.171Z,2.67
2022-11-03T11:09:50.087Z,2.53
2022-11-03T11:12:22.341Z,4.40
2022-11-03T11:14:55.711Z,3.33
2022-11-03T11:17:49.956Z,2.92
2022-11-03T11:20:38.941Z,2.72
2022-11-03T11:23:41.527Z,3.03
2022-11-03T11:26:41.068Z,2.78
2022-11-03T11:29:46.239Z,2.72
2022-11-03T11:32:47.651Z,3.60
2022-11-03T11:35:20.147Z,2.83
2022-11-03T11:37:48.029Z,2.53
2022-11-03T11:40:41.644Z,2.97
2022-11-03T11:43:26.667Z,2.22
2022-11-03T11:46:39.383Z,2.88
2022-11-03T11:49:18.311Z,2.15
2022-11-03T11:51:46.312Z,2.25
2022-11-03T11:54:18.911Z,2.65
2022-11-03T11:56:49.738Z,3.10
2022-11-03T11:59:25.097Z,2.60
2022-11-03T12:01:57.080Z,2.53
2022-11-03T12:04:31.330Z,3.30
2022-11-03T12:06:59.650Z,2.55
2022-11-03T12:09:29.046Z,2.50
2022-11-03T12:12:00.795Z,2.22
2022-11-03T12:14:37.220Z,2.92
2022-11-03T12:17:35.076Z,3.00
2022-11-03T12:20:35.712Z,2.42
2022-11-03T12:23:03.463Z,2.20
2022-11-03T12:25:37.011Z,2.30
2022-11-03T12:28:05.209Z,2.85
2022-11-03T12:30:39.468Z,2.55
2022-11-03T12:33:10.614Z,2.60
2022-11-03T12:35:38.605Z,3.20
2022-11-03T12:38:06.294Z,2.92
2022-11-03T12:40:34.037Z,3.60
2022-11-03T12:43:01.761Z,3.38
2022-11-03T12:45:29.457Z,3.38
2022-11-03T12:47:57.301Z,3.13
2022-11-03T12:50:26.386Z,2.70
2022-11-03T12:52:54.120Z,2.90
2022-11-03T12:55:21.936Z,3.30
2022-11-03T12:57:49.680Z,3.40
2022-11-03T13:00:18.545Z,3.78
2022-11-03T13:02:46.383Z,3.17
2022-11-03T13:05:15.366Z,3.33
2022-11-03T13:07:44.506Z,3.53
2022-11-03T13:10:15.025Z,3.55
2022-11-03T13:12:44.478Z,3.92
2022-11-03T13:15:15.966Z,3.28
2022-11-03T13:18:12.789Z,3.10
2022-11-03T13:20:32.211Z,3.10
2022-11-03T13:23:01.385Z,2.78
2022-11-03T13:25:29.522Z,3.30
2022-11-03T13:27:57.767Z,2.90
2022-11-03T13:30:27.217Z,2.43
2022-11-03T13:32:55.119Z,3.22
2022-11-03T13:35:22.855Z,2.95
2022-11-03T13:37:50.585Z,3.22
2022-11-03T13:40:50.401Z,3.10
2022-11-03T13:43:08.081Z,2.65
2022-11-03T13:45:36.032Z,3.00
2022-11-03T13:50:53.511Z,2.92
2022-11-03T13:56:15.208Z,3.37
2022-11-03T14:01:35.161Z,2.67
2022-11-03T14:06:56.636Z,2.65
2022-11-03T14:09:24.619Z,2.92
2022-11-03T14:12:11.029Z,3.42
2022-11-03T14:14:38.778Z,2.88
2022-11-03T14:17:06.515Z,2.35
2022-11-03T14:19:39.810Z,3.47
2022-11-03T14:22:11.654Z,3.22
2022-11-03T14:24:39.411Z,3.25
2022-11-03T14:27:08.709Z,3.42
2022-11-03T14:29:36.493Z,2.58
2022-11-03T14:32:04.234Z,3.13
2022-11-03T14:34:31.988Z,2.80
2022-11-03T14:36:59.902Z,2.95
2022-11-03T14:39:27.787Z,2.63
2022-11-03T14:42:03.477Z,3.47
2022-11-03T14:44:33.647Z,3.20
2022-11-03T14:47:02.659Z,3.60
2022-11-03T14:49:31.110Z,3.05
2022-11-03T14:52:01.530Z,3.15
2022-11-03T14:54:30.455Z,3.08
2022-11-03T14:56:58.598Z,3.15
2022-11-03T14:59:26.605Z,3.80
2022-11-03T15:01:56.596Z,3.63
2022-11-03T15:04:27.390Z,3.80
2022-11-03T15:06:55.612Z,2.95
2022-11-03T15:09:23.338Z,3.80
2022-11-03T15:11:51.081Z,2.97
2022-11-03T15:14:18.844Z,3.85
2022-11-03T15:16:46.649Z,3.60
2022-11-03T15:19:15.785Z,3.70
2022-11-03T15:21:48.944Z,3.15
2022-11-03T15:27:04.604Z,4.10
2022-11-03T15:29:34.397Z,3.07
2022-11-03T15:32:02.093Z,3.28
2022-11-03T15:34:31.138Z,3.35
2022-11-03T15:36:58.933Z,3.13
2022-11-03T15:39:29.594Z,2.92
2022-11-03T15:41:57.417Z,3.22
2022-11-03T15:44:25.146Z,3.20
2022-11-03T15:46:52.935Z,3.22
2022-11-03T15:49:20.642Z,3.03
2022-11-03T15:51:49.719Z,2.97
2022-11-03T15:54:17.435Z,3.25
2022-11-03T15:56:45.173Z,3.60
2022-11-03T15:59:12.922Z,2.88
2022-11-03T16:01:40.735Z,3.95
2022-11-03T16:04:08.737Z,3.23
2022-11-03T16:09:25.505Z,3.47
2022-11-03T16:11:53.325Z,3.58
2022-11-03T16:14:21.048Z,3.50
2022-11-03T16:16:48.787Z,3.65
2022-11-03T16:19:16.519Z,4.00
2022-11-03T16:21:44.241Z,3.60
2022-11-03T16:24:12.354Z,3.92
2022-11-03T16:26:41.462Z,3.50
2022-11-03T16:29:09.270Z,3.47
2022-11-03T16:31:37.036Z,3.58
2022-11-03T16:34:05.017Z,3.25
2022-11-03T16:36:32.790Z,3.57
2022-11-03T16:39:01.033Z,4.50
2022-11-03T16:41:28.837Z,3.55
2022-11-03T16:43:58.100Z,3.80
2022-11-03T16:46:25.894Z,3.70
2022-11-03T16:48:53.720Z,5.37
2022-11-03T16:51:21.522Z,5.20
2022-11-03T16:53:52.745Z,4.60
2022-11-03T16:56:20.469Z,4.28
2022-11-03T16:58:48.221Z,4.50
2022-11-03T17:01:17.446Z,4.55
2022-11-03T17:03:45.349Z,4.22
2022-11-03T17:06:13.297Z,4.05
2022-11-03T17:08:58.754Z,3.80
2022-11-03T17:11:39.327Z,4.00
2022-11-03T17:14:08.852Z,4.70
2022-11-03T17:16:37.946Z,4.35
2022-11-03T17:19:07.409Z,4.25
2022-11-03T17:21:35.301Z,4.37
2022-11-03T17:24:03.917Z,5.50
2022-11-03T17:26:42.885Z,4.57
2022-11-03T17:29:16.352Z,4.63
2022-11-03T17:31:47.305Z,4.03
2022-11-03T17:34:17.905Z,3.90
2022-11-03T17:36:48.133Z,3.97
2022-11-03T17:39:17.692Z,3.83
2022-11-03T17:41:45.460Z,4.43
2022-11-03T17:44:19.902Z,4.23
2022-11-03T17:46:49.126Z,4.20
2022-11-03T17:49:16.829Z,4.80
2022-11-03T17:51:45.573Z,4.30
2022-11-03T17:54:17.477Z,4.33
2022-11-03T17:56:45.490Z,4.60
2022-11-03T17:59:16.073Z,4.43
2022-11-03T18:01:46.266Z,4.22
2022-11-03T18:04:16.359Z,4.72
2022-11-03T18:06:45.398Z,4.57
2022-11-03T18:09:13.245Z,5.00
2022-11-03T18:12:01.318Z,4.90
2022-11-03T18:14:30.396Z,5.20
2022-11-03T18:16:58.956Z,5.18
2022-11-03T18:19:28.467Z,5.17
2022-11-03T18:21:56.165Z,5.27
2022-11-03T18:24:23.941Z,5.83
2022-11-03T18:26:51.658Z,6.60
2022-11-03T18:29:19.589Z,5.97
2022-11-03T18:31:50.271Z,5.30
2022-11-03T18:34:21.115Z,5.30
2022-11-03T18:36:52.505Z,6.13
2022-11-03T18:39:23.941Z,5.75
2022-11-03T18:41:51.673Z,6.47
2022-11-03T18:44:21.296Z,5.90
2022-11-03T18:46:51.208Z,6.38
2022-11-03T18:49:19.890Z,7.03
2022-11-03T18:51:51.371Z,6.78
2022-11-03T18:54:21.644Z,7.57
2022-11-03T18:56:50.019Z,6.60
2022-11-03T18:59:22.154Z,9.18
2022-11-03T19:01:50.351Z,10.00
2022-11-03T19:04:18.190Z,9.48
2022-11-03T19:06:51.370Z,8.43
2022-11-03T19:09:24.563Z,9.95
2022-11-03T19:11:56.556Z,10.33
2022-11-03T19:14:33.941Z,9.33
2022-11-03T19:19:54.198Z,9.53
2022-11-03T19:22:23.715Z,10.63
2022-11-03T19:24:53.037Z,11.52
2022-11-03T19:27:23.877Z,11.70
2022-11-03T19:29:53.809Z,10.07
2022-11-03T19:32:27.267Z,9.03
2022-11-03T19:34:59.903Z,8.77
2022-11-03T19:37:32.549Z,7.20
2022-11-03T19:40:13.813Z,7.68
2022-11-03T19:42:40.542Z,8.17
2022-11-03T19:45:11.810Z,7.80
2022-11-03T19:47:57.563Z,15.77
2022-11-03T19:50:33.243Z,8.67
2022-11-03T19:53:05.956Z,6.80
2022-11-03T19:55:38.991Z,5.93
2022-11-03T19:58:14.232Z,5.23
2022-11-03T20:00:42.177Z,5.57
2022-11-03T20:03:09.989Z,6.20
2022-11-03T20:05:37.920Z,8.73
2022-11-03T20:08:09.054Z,8.00
2022-11-03T20:10:38.605Z,7.32
2022-11-03T20:13:10.622Z,7.13
2022-11-03T20:15:38.503Z,7.45
2022-11-03T20:18:06.688Z,7.50
2022-11-03T20:20:37.661Z,6.72
2022-11-03T20:23:06.628Z,5.93
2022-11-03T20:25:36.798Z,5.38
2022-11-03T20:28:17.167Z,5.80
2022-11-03T20:30:45.083Z,6.75
2022-11-03T20:33:15.543Z,5.63
2022-11-03T20:35:44.524Z,5.27
2022-11-03T20:38:14.963Z,5.87
2022-11-03T20:40:43.296Z,6.15
2022-11-03T20:43:26.316Z,6.20
2022-11-03T20:45:54.557Z,6.05
2022-11-03T20:48:22.659Z,6.10
2022-11-03T20:50:50.581Z,6.93
2022-11-03T20:53:20.589Z,7.00
2022-11-03T20:55:48.752Z,7.83
2022-11-03T20:58:19.127Z,7.80
2022-11-03T21:00:48.929Z,8.13
2022-11-03T21:03:38.063Z,7.88
2022-11-03T21:06:11.212Z,7.28
2022-11-03T21:08:39.026Z,8.85
2022-11-03T21:11:28.223Z,9.88
2022-11-03T21:13:59.953Z,9.30
2022-11-03T21:16:47.056Z,11.07
2022-11-03T21:19:37.306Z,9.85
2022-11-03T21:22:30.837Z,10.98
2022-11-03T21:25:02.476Z,8.18
2022-11-03T21:27:30.279Z,7.60
2022-11-03T21:30:00.158Z,7.38
2022-11-03T21:32:28.132Z,6.77
2022-11-03T21:34:55.890Z,5.72
2022-11-03T21:37:23.658Z,5.95
2022-11-03T21:39:51.443Z,5.10
2022-11-03T21:42:36.476Z,5.32
2022-11-03T21:45:06.871Z,3.90
2022-11-03T21:47:34.584Z,4.57
2022-11-03T21:50:01.508Z,4.15
2022-11-03T21:52:32.588Z,4.28
2022-11-03T21:55:00.639Z,4.07
2022-11-03T21:57:29.612Z,4.40
2022-11-03T21:59:58.888Z,4.25
2022-11-03T22:02:30.161Z,4.60
2022-11-03T22:04:58.600Z,4.18
2022-11-03T22:07:26.344Z,4.53
2022-11-03T22:09:54.046Z,4.50
2022-11-03T22:12:21.765Z,3.92
2022-11-03T22:15:06.899Z,4.22
2022-11-03T22:17:35.996Z,4.13
2022-11-03T22:20:21.106Z,4.50
2022-11-03T22:23:06.561Z,4.68
2022-11-03T22:26:00.273Z,4.60
2022-11-03T22:28:27.984Z,4.20
2022-11-03T22:31:13.211Z,4.03
2022-11-03T22:33:56.293Z,4.20
2022-11-03T22:36:27.007Z,3.90
2022-11-03T22:39:12.480Z,2.90
2022-11-03T22:42:01.932Z,2.30
2022-11-03T22:44:50.317Z,2.95
2022-11-03T22:47:18.938Z,1.53
2022-11-03T22:49:48.278Z,1.38
2022-11-03T22:52:15.950Z,1.15
2022-11-03T22:54:42.718Z,1.17
2022-11-03T22:57:11.295Z,1.15
2022-11-03T22:59:39.104Z,1.17
2022-11-03T23:02:06.898Z,1.00
2022-11-03T23:04:34.769Z,1.10
2022-11-03T23:07:03.920Z,1.00
2022-11-03T23:09:31.855Z,0.93
2022-11-03T23:11:59.573Z,1.47
2022-11-03T23:14:47.707Z,0.97
2022-11-03T23:17:17.612Z,0.80
2022-11-03T23:20:02.740Z,0.90
2022-11-03T23:22:33.749Z,0.70
2022-11-03T23:25:00.533Z,0.80
2022-11-03T23:27:28.586Z,0.80
2022-11-03T23:29:56.434Z,1.00
2022-11-03T23:32:24.274Z,1.03
2022-11-03T23:34:54.543Z,1.20
2022-11-03T23:37:22.547Z,1.20
2022-11-03T23:39:53.885Z,0.90
2022-11-03T23:42:21.675Z,1.10
2022-11-03T23:45:06.061Z,1.23
2022-11-03T23:47:51.202Z,0.97
2022-11-03T23:50:18.954Z,0.90
2022-11-03T23:52:46.740Z,1.00
2022-11-03T23:55:15.867Z,0.93
2022-11-03T23:58:00.821Z,1.30
